createdAt,value
2023-07-19T00:00:02.190Z,0.00
2023-07-19T00:01:02.189Z,0.00
2023-07-19T00:02:02.211Z,0.00
2023-07-19T00:03:02.234Z,0.00
2023-07-19T00:04:02.214Z,0.00
2023-07-19T00:05:02.174Z,0.00
2023-07-19T00:06:02.108Z,0.00
2023-07-19T00:07:02.136Z,0.00
2023-07-19T00:08:02.131Z,0.00
2023-07-19T00:09:02.134Z,0.00
2023-07-19T00:10:02.116Z,0.00
2023-07-19T00:11:02.156Z,0.00
2023-07-19T00:12:02.091Z,0.00
2023-07-19T00:13:02.097Z,0.00
2023-07-19T00:14:03.072Z,0.00
2023-07-19T00:15:02.085Z,0.00
2023-07-19T00:16:02.157Z,0.00
2023-07-19T00:17:02.043Z,0.00
2023-07-19T00:18:02.139Z,0.00
2023-07-19T00:19:14.243Z,0.00
2023-07-19T00:20:04.044Z,0.00
2023-07-19T00:21:02.802Z,0.00
2023-07-19T00:22:02.035Z,0.00
2023-07-19T00:23:02.125Z,0.00
2023-07-19T00:24:02.031Z,0.00
2023-07-19T00:25:02.031Z,0.00
2023-07-19T00:26:02.013Z,0.00
2023-07-19T00:27:02.026Z,0.00
2023-07-19T00:28:02.015Z,0.00
2023-07-19T00:29:01.990Z,0.00
2023-07-19T00:30:01.988Z,0.00
2023-07-19T00:31:01.984Z,0.00
2023-07-19T00:32:02.012Z,0.00
2023-07-19T00:33:02.036Z,0.00
2023-07-19T00:34:01.992Z,0.00
2023-07-19T00:35:01.947Z,0.00
2023-07-19T00:36:01.976Z,0.00
2023-07-19T00:37:01.919Z,0.00
2023-07-19T00:38:01.975Z,0.00
2023-07-19T00:39:01.925Z,0.00
2023-07-19T00:40:01.915Z,0.00
2023-07-19T00:41:01.913Z,0.00
2023-07-19T00:42:01.944Z,0.00
2023-07-19T00:43:01.932Z,0.00
2023-07-19T00:44:01.887Z,0.00
2023-07-19T00:45:01.930Z,0.00
2023-07-19T00:46:01.969Z,0.00
2023-07-19T00:47:01.892Z,0.00
2023-07-19T00:48:01.974Z,0.00
2023-07-19T00:49:01.943Z,0.00
2023-07-19T00:50:01.911Z,0.00
2023-07-19T00:51:01.886Z,0.00
2023-07-19T00:52:01.890Z,0.00
2023-07-19T00:53:01.879Z,0.00
2023-07-19T00:54:01.925Z,0.00
2023-07-19T00:55:01.857Z,0.00
2023-07-19T00:56:01.866Z,0.00
2023-07-19T00:57:01.860Z,0.00
2023-07-19T00:58:01.863Z,0.00
2023-07-19T00:59:01.845Z,0.00
2023-07-19T01:00:01.868Z,0.00
2023-07-19T01:01:01.861Z,0.00
2023-07-19T01:02:01.887Z,0.00
2023-07-19T01:03:01.838Z,0.00
2023-07-19T01:04:01.799Z,0.00
2023-07-19T01:05:01.862Z,0.00
2023-07-19T01:06:01.785Z,0.00
2023-07-19T01:07:01.789Z,0.00
2023-07-19T01:08:01.770Z,0.00
2023-07-19T01:09:01.770Z,0.00
2023-07-19T01:10:01.748Z,0.00
2023-07-19T01:11:01.869Z,0.00
2023-07-19T01:12:01.729Z,0.00
2023-07-19T01:13:01.741Z,0.00
2023-07-19T01:14:01.734Z,0.00
2023-07-19T01:15:01.739Z,0.00
2023-07-19T01:16:01.818Z,0.00
2023-07-19T01:17:01.734Z,0.00
2023-07-19T01:18:01.780Z,0.00
2023-07-19T01:19:01.727Z,0.00
2023-07-19T01:20:01.708Z,0.00
2023-07-19T01:21:10.383Z,0.00
2023-07-19T01:22:01.783Z,0.00
2023-07-19T01:23:01.738Z,0.00
2023-07-19T01:24:01.708Z,0.00
2023-07-19T01:25:01.699Z,0.00
2023-07-19T01:26:01.678Z,0.00
2023-07-19T01:27:16.978Z,0.00
2023-07-19T01:28:03.685Z,0.00
2023-07-19T01:29:01.673Z,0.00
2023-07-19T01:30:01.677Z,0.00
2023-07-19T01:31:01.661Z,0.00
2023-07-19T01:32:01.678Z,0.00
2023-07-19T01:33:01.708Z,0.00
2023-07-19T01:34:01.633Z,0.00
2023-07-19T01:35:01.658Z,0.00
2023-07-19T01:36:01.623Z,0.00
2023-07-19T01:37:01.612Z,0.00
2023-07-19T01:38:01.650Z,0.00
2023-07-19T01:39:01.623Z,0.00
2023-07-19T01:40:01.628Z,0.00
2023-07-19T01:41:01.610Z,0.00
2023-07-19T01:42:01.610Z,0.00
2023-07-19T01:43:01.603Z,0.00
2023-07-19T01:44:01.585Z,0.00
2023-07-19T01:45:01.601Z,0.00
2023-07-19T01:46:01.569Z,0.00
2023-07-19T01:47:01.564Z,0.00
2023-07-19T01:48:01.562Z,0.00
2023-07-19T01:49:01.600Z,0.00
2023-07-19T01:50:01.568Z,0.00
2023-07-19T01:51:01.522Z,0.00
2023-07-19T01:52:01.533Z,0.00
2023-07-19T01:53:01.494Z,0.00
2023-07-19T01:54:01.541Z,0.00
2023-07-19T01:55:01.539Z,0.00
2023-07-19T01:56:01.526Z,0.00
2023-07-19T01:57:01.518Z,0.00
2023-07-19T01:58:01.504Z,0.00
2023-07-19T01:59:01.505Z,0.00
2023-07-19T02:00:01.493Z,0.00
2023-07-19T02:01:01.640Z,0.00
2023-07-19T02:02:02.583Z,0.00
2023-07-19T02:03:01.512Z,0.00
2023-07-19T02:04:01.489Z,0.00
2023-07-19T02:05:01.487Z,0.00
2023-07-19T02:06:01.444Z,0.00
2023-07-19T02:07:01.426Z,0.00
2023-07-19T02:08:01.464Z,0.00
2023-07-19T02:09:01.442Z,0.00
2023-07-19T02:10:01.437Z,0.00
2023-07-19T02:11:01.428Z,0.00
2023-07-19T02:12:01.495Z,0.00
2023-07-19T02:13:01.422Z,0.00
2023-07-19T02:14:01.426Z,0.00
2023-07-19T02:15:01.390Z,0.00
2023-07-19T02:16:01.444Z,0.00
2023-07-19T02:17:01.386Z,0.00
2023-07-19T02:18:01.382Z,0.00
2023-07-19T02:19:01.386Z,0.00
2023-07-19T02:20:01.369Z,0.00
2023-07-19T02:21:01.363Z,0.00
2023-07-19T02:22:01.381Z,0.00
2023-07-19T02:23:01.344Z,0.00
2023-07-19T02:24:01.395Z,0.00
2023-07-19T02:25:01.355Z,0.00
2023-07-19T02:26:01.363Z,0.00
2023-07-19T02:27:01.331Z,0.00
2023-07-19T02:28:01.337Z,0.00
2023-07-19T02:29:01.329Z,0.00
2023-07-19T02:30:01.344Z,0.00
2023-07-19T02:31:01.372Z,0.00
2023-07-19T02:32:01.295Z,0.00
2023-07-19T02:33:01.316Z,0.00
2023-07-19T02:34:01.288Z,0.00
2023-07-19T02:35:01.307Z,0.00
2023-07-19T02:36:01.267Z,0.00
2023-07-19T02:37:01.292Z,0.00
2023-07-19T02:38:01.284Z,0.00
2023-07-19T02:39:01.265Z,0.00
2023-07-19T02:40:01.260Z,0.00
2023-07-19T02:41:01.250Z,0.00
2023-07-19T02:42:01.263Z,0.00
2023-07-19T02:43:01.238Z,0.00
2023-07-19T02:44:01.258Z,0.00
2023-07-19T02:45:01.254Z,0.00
2023-07-19T02:46:01.211Z,0.00
2023-07-19T02:47:01.251Z,0.00
2023-07-19T02:48:01.230Z,0.00
2023-07-19T02:49:01.354Z,0.00
2023-07-19T02:50:01.257Z,0.00
2023-07-19T02:51:01.214Z,0.00
2023-07-19T02:52:01.186Z,0.00
2023-07-19T02:53:01.179Z,0.00
2023-07-19T02:54:01.195Z,0.00
2023-07-19T02:55:01.201Z,0.00
2023-07-19T02:56:01.133Z,0.00
2023-07-19T02:57:01.134Z,0.00
2023-07-19T02:58:01.153Z,0.00
2023-07-19T02:59:01.163Z,0.00
2023-07-19T03:00:01.162Z,4.00
2023-07-19T03:01:01.256Z,4.00
2023-07-19T03:02:01.120Z,4.00
2023-07-19T03:03:01.217Z,0.00
2023-07-19T03:04:01.106Z,4.00
2023-07-19T03:05:01.145Z,4.00
2023-07-19T03:06:01.092Z,4.00
2023-07-19T03:07:01.112Z,4.00
2023-07-19T03:08:01.079Z,8.00
2023-07-19T03:09:01.113Z,4.00
2023-07-19T03:10:01.125Z,8.00
2023-07-19T03:11:01.089Z,8.00
2023-07-19T03:12:01.069Z,12.00
2023-07-19T03:13:01.110Z,12.00
2023-07-19T03:14:01.072Z,8.00
2023-07-19T03:15:01.091Z,12.00
2023-07-19T03:16:01.746Z,16.00
2023-07-19T03:17:01.051Z,12.00
2023-07-19T03:18:01.120Z,16.00
2023-07-19T03:19:01.024Z,16.00
2023-07-19T03:20:01.066Z,20.00
2023-07-19T03:21:01.039Z,20.00
2023-07-19T03:22:01.071Z,24.00
2023-07-19T03:23:01.038Z,24.00
2023-07-19T03:24:01.030Z,28.00
2023-07-19T03:25:01.015Z,32.00
2023-07-19T03:26:01.012Z,32.00
2023-07-19T03:27:01.015Z,32.00
2023-07-19T03:28:00.980Z,32.00
2023-07-19T03:29:01.037Z,40.00
2023-07-19T03:30:01.008Z,44.00
2023-07-19T03:31:01.086Z,44.00
2023-07-19T03:32:00.956Z,44.00
2023-07-19T03:33:01.081Z,48.00
2023-07-19T03:34:00.965Z,52.00
2023-07-19T03:35:00.970Z,56.00
2023-07-19T03:36:00.928Z,60.00
2023-07-19T03:37:00.972Z,64.00
2023-07-19T03:38:00.945Z,64.00
2023-07-19T03:39:00.949Z,64.00
2023-07-19T03:40:00.942Z,68.00
2023-07-19T03:41:00.905Z,72.00
2023-07-19T03:42:00.913Z,72.00
2023-07-19T03:43:00.958Z,76.00
2023-07-19T03:44:00.885Z,84.00
2023-07-19T03:45:00.898Z,92.00
2023-07-19T03:46:00.972Z,96.00
2023-07-19T03:47:00.904Z,104.00
2023-07-19T03:48:00.944Z,104.00
2023-07-19T03:49:00.882Z,104.00
2023-07-19T03:50:00.889Z,120.00
2023-07-19T03:51:00.864Z,124.00
2023-07-19T03:52:00.848Z,136.00
2023-07-19T03:53:00.822Z,148.00
2023-07-19T03:54:00.878Z,160.00
2023-07-19T03:55:01.086Z,152.00
2023-07-19T03:56:00.855Z,160.00
2023-07-19T03:57:00.820Z,184.00
2023-07-19T03:58:00.801Z,208.00
2023-07-19T03:59:00.849Z,228.00
2023-07-19T04:00:00.798Z,244.00
2023-07-19T04:01:00.784Z,264.00
2023-07-19T04:02:00.896Z,276.00
2023-07-19T04:03:00.869Z,300.00
2023-07-19T04:04:00.814Z,320.00
2023-07-19T04:05:00.789Z,324.00
2023-07-19T04:06:00.774Z,332.00
2023-07-19T04:07:00.789Z,344.00
2023-07-19T04:08:00.755Z,332.00
2023-07-19T04:09:00.750Z,348.00
2023-07-19T04:10:00.786Z,348.00
2023-07-19T04:11:00.753Z,344.00
2023-07-19T04:12:00.775Z,312.00
2023-07-19T04:13:00.723Z,296.00
2023-07-19T04:14:00.712Z,284.00
2023-07-19T04:15:00.730Z,248.00
2023-07-19T04:16:00.722Z,228.00
2023-07-19T04:17:00.717Z,220.00
2023-07-19T04:18:00.781Z,224.00
2023-07-19T04:19:00.716Z,252.00
2023-07-19T04:20:00.723Z,260.00
2023-07-19T04:21:00.715Z,252.00
2023-07-19T04:22:00.743Z,240.00
2023-07-19T04:23:00.742Z,240.00
2023-07-19T04:24:00.674Z,240.00
2023-07-19T04:25:00.685Z,260.00
2023-07-19T04:26:00.711Z,276.00
2023-07-19T04:27:00.681Z,304.00
2023-07-19T04:28:00.675Z,320.00
2023-07-19T04:29:00.668Z,288.00
2023-07-19T04:30:00.668Z,296.00
2023-07-19T04:31:00.670Z,316.00
2023-07-19T04:32:00.616Z,328.00
2023-07-19T04:33:00.783Z,380.00
2023-07-19T04:34:00.798Z,416.00
2023-07-19T04:35:00.625Z,460.00
2023-07-19T04:36:00.613Z,580.00
2023-07-19T04:37:00.592Z,692.00
2023-07-19T04:38:00.611Z,720.00
2023-07-19T04:39:00.597Z,596.00
2023-07-19T04:40:00.571Z,484.00
2023-07-19T04:41:00.639Z,424.00
2023-07-19T04:42:00.611Z,404.00
2023-07-19T04:43:00.584Z,416.00
2023-07-19T04:44:00.555Z,408.00
2023-07-19T04:45:00.556Z,404.00
2023-07-19T04:46:00.620Z,396.00
2023-07-19T04:47:00.580Z,404.00
2023-07-19T04:48:00.565Z,416.00
2023-07-19T04:49:00.572Z,416.00
2023-07-19T04:50:00.591Z,448.00
2023-07-19T04:51:00.555Z,528.00
2023-07-19T04:52:00.520Z,588.00
2023-07-19T04:53:00.503Z,632.00
2023-07-19T04:54:00.503Z,684.00
2023-07-19T04:55:00.502Z,676.00
2023-07-19T04:56:00.496Z,708.00
2023-07-19T04:57:00.522Z,752.00
2023-07-19T04:58:00.507Z,816.00
2023-07-19T04:59:00.514Z,812.00
2023-07-19T05:00:00.512Z,836.00
2023-07-19T05:01:00.468Z,884.00
2023-07-19T05:02:00.525Z,928.00
2023-07-19T05:03:00.466Z,936.00
2023-07-19T05:04:00.452Z,976.00
2023-07-19T05:05:00.485Z,932.00
2023-07-19T05:06:00.473Z,872.00
2023-07-19T05:07:00.448Z,904.00
2023-07-19T05:08:00.459Z,916.00
2023-07-19T05:09:00.447Z,908.00
2023-07-19T05:10:00.466Z,916.00
2023-07-19T05:11:00.441Z,848.00
2023-07-19T05:12:00.417Z,780.00
2023-07-19T05:13:00.397Z,816.00
2023-07-19T05:14:00.399Z,896.00
2023-07-19T05:15:00.453Z,1148.00
2023-07-19T05:16:00.415Z,1292.00
2023-07-19T05:17:00.422Z,1180.00
2023-07-19T05:18:00.427Z,1232.00
2023-07-19T05:19:00.392Z,1200.00
2023-07-19T05:20:00.376Z,1236.00
2023-07-19T05:21:00.448Z,1388.00
2023-07-19T05:22:00.376Z,1692.00
2023-07-19T05:23:00.415Z,1660.00
2023-07-19T05:24:00.337Z,1716.00
2023-07-19T05:25:00.354Z,1764.00
2023-07-19T05:26:01.232Z,1928.00
2023-07-19T05:27:00.370Z,1888.00
2023-07-19T05:28:00.313Z,1688.00
2023-07-19T05:29:00.950Z,1560.00
2023-07-19T05:30:00.357Z,1644.00
2023-07-19T05:31:00.582Z,1952.00
2023-07-19T05:32:00.309Z,2000.00
2023-07-19T05:33:00.356Z,1936.00
2023-07-19T05:34:00.274Z,1812.00
2023-07-19T05:35:00.300Z,1828.00
2023-07-19T05:36:00.280Z,1844.00
2023-07-19T05:37:00.314Z,1920.00
2023-07-19T05:38:00.705Z,1944.00
2023-07-19T05:39:01.277Z,2036.00
2023-07-19T05:40:00.300Z,2076.00
2023-07-19T05:41:00.267Z,1852.00
2023-07-19T05:42:00.256Z,1544.00
2023-07-19T05:43:00.259Z,1680.00
2023-07-19T05:44:10.762Z,2004.00
2023-07-19T05:45:02.256Z,2232.00
2023-07-19T05:46:00.314Z,2436.00
2023-07-19T05:47:00.226Z,2608.00
2023-07-19T05:48:00.260Z,2724.00
2023-07-19T05:49:00.221Z,2692.00
2023-07-19T05:50:00.226Z,2512.00
2023-07-19T05:51:00.200Z,2052.00
2023-07-19T05:52:00.223Z,1820.00
2023-07-19T05:53:00.182Z,1620.00
2023-07-19T05:54:00.173Z,1784.00
2023-07-19T05:55:00.230Z,1844.00
2023-07-19T05:56:00.170Z,2084.00
2023-07-19T05:57:00.210Z,2060.00
2023-07-19T05:58:00.141Z,2256.00
2023-07-19T05:59:00.166Z,2548.00
2023-07-19T06:00:10.513Z,2876.00
2023-07-19T06:01:02.242Z,3156.00
2023-07-19T06:02:00.314Z,3312.00
2023-07-19T06:03:00.212Z,2916.00
2023-07-19T06:04:00.253Z,2780.00
2023-07-19T06:05:00.164Z,2812.00
2023-07-19T06:06:00.131Z,3240.00
2023-07-19T06:07:00.134Z,3604.00
2023-07-19T06:08:13.917Z,3620.00
2023-07-19T06:09:01.089Z,3280.00
2023-07-19T06:10:00.105Z,2656.00
2023-07-19T06:11:00.080Z,2720.00
2023-07-19T06:12:00.149Z,3212.00
2023-07-19T06:13:00.113Z,3360.00
2023-07-19T06:14:00.116Z,3704.00
2023-07-19T06:15:00.129Z,3976.00
2023-07-19T06:16:00.103Z,4064.00
2023-07-19T06:17:00.111Z,3396.00
2023-07-19T06:18:00.109Z,2972.00
2023-07-19T06:19:00.033Z,2264.00
2023-07-19T06:20:00.055Z,1768.00
2023-07-19T06:21:00.047Z,1572.00
2023-07-19T06:22:00.041Z,1688.00
2023-07-19T06:23:00.131Z,1588.00
2023-07-19T06:24:00.064Z,1712.00
2023-07-19T06:24:59.990Z,1684.00
2023-07-19T06:26:00.023Z,1664.00
2023-07-19T06:27:00.011Z,1648.00
2023-07-19T06:28:00.008Z,1656.00
2023-07-19T06:29:00.045Z,1676.00
2023-07-19T06:29:59.991Z,1724.00
2023-07-19T06:31:00.096Z,1752.00
2023-07-19T06:31:59.999Z,1724.00
2023-07-19T06:33:00.424Z,1732.00
2023-07-19T06:33:59.963Z,1728.00
2023-07-19T06:34:59.941Z,1724.00
2023-07-19T06:35:59.961Z,1744.00
2023-07-19T06:36:59.952Z,1756.00
2023-07-19T06:37:59.975Z,1768.00
2023-07-19T06:38:59.958Z,1780.00
2023-07-19T06:39:59.950Z,1796.00
2023-07-19T06:40:59.927Z,1816.00
2023-07-19T06:41:59.928Z,1840.00
2023-07-19T06:42:59.971Z,1876.00
2023-07-19T06:43:59.898Z,1908.00
2023-07-19T06:44:59.913Z,1904.00
2023-07-19T06:45:59.929Z,1896.00
2023-07-19T06:46:59.943Z,1908.00
2023-07-19T06:47:59.916Z,1976.00
2023-07-19T06:48:59.883Z,2004.00
2023-07-19T06:49:59.861Z,2052.00
2023-07-19T06:50:59.877Z,2068.00
2023-07-19T06:51:59.861Z,2096.00
2023-07-19T06:52:59.897Z,2320.00
2023-07-19T06:54:13.228Z,3064.00
2023-07-19T06:55:01.820Z,3824.00
2023-07-19T06:55:59.851Z,4220.00
2023-07-19T06:56:59.844Z,4172.00
2023-07-19T06:57:59.849Z,4376.00
2023-07-19T06:58:59.891Z,5076.00
2023-07-19T06:59:59.821Z,5100.00
2023-07-19T07:00:59.849Z,5320.00
2023-07-19T07:01:59.805Z,5420.00
2023-07-19T07:02:59.914Z,5372.00
2023-07-19T07:03:59.855Z,5096.00
2023-07-19T07:04:59.779Z,4624.00
2023-07-19T07:06:01.644Z,3888.00
2023-07-19T07:06:59.781Z,3408.00
2023-07-19T07:07:59.792Z,3036.00
2023-07-19T07:08:59.780Z,2468.00
2023-07-19T07:09:59.766Z,2168.00
2023-07-19T07:10:59.748Z,2204.00
2023-07-19T07:11:59.791Z,2184.00
2023-07-19T07:12:59.765Z,2368.00
2023-07-19T07:13:59.755Z,2268.00
2023-07-19T07:14:59.731Z,2508.00
2023-07-19T07:15:59.745Z,2528.00
2023-07-19T07:16:59.751Z,2588.00
2023-07-19T07:17:59.800Z,2604.00
2023-07-19T07:18:59.705Z,2624.00
2023-07-19T07:20:00.454Z,2660.00
2023-07-19T07:21:00.700Z,2700.00
2023-07-19T07:21:59.685Z,2752.00
2023-07-19T07:22:59.716Z,2788.00
2023-07-19T07:23:59.678Z,2804.00
2023-07-19T07:24:59.697Z,2808.00
2023-07-19T07:25:59.677Z,2812.00
2023-07-19T07:26:59.685Z,2948.00
2023-07-19T07:27:59.651Z,3244.00
2023-07-19T07:28:59.655Z,3360.00
2023-07-19T07:29:59.648Z,3624.00
2023-07-19T07:30:59.699Z,3840.00
2023-07-19T07:31:59.630Z,3460.00
2023-07-19T07:32:59.712Z,3304.00
2023-07-19T07:33:59.633Z,3224.00
2023-07-19T07:34:59.633Z,3348.00
2023-07-19T07:35:59.599Z,3496.00
2023-07-19T07:36:59.631Z,3428.00
2023-07-19T07:37:59.627Z,3388.00
2023-07-19T07:38:59.589Z,3392.00
2023-07-19T07:39:59.647Z,3540.00
2023-07-19T07:40:59.584Z,3820.00
2023-07-19T07:41:59.585Z,4056.00
2023-07-19T07:42:59.546Z,4116.00
2023-07-19T07:43:59.589Z,3956.00
2023-07-19T07:44:59.630Z,3924.00
2023-07-19T07:45:59.574Z,4184.00
2023-07-19T07:46:59.599Z,4808.00
2023-07-19T07:47:59.587Z,4948.00
2023-07-19T07:48:59.593Z,4200.00
2023-07-19T07:49:59.534Z,3408.00
2023-07-19T07:50:59.549Z,3600.00
2023-07-19T07:51:59.537Z,3628.00
2023-07-19T07:53:11.859Z,3492.00
2023-07-19T07:54:01.512Z,3404.00
2023-07-19T07:54:59.547Z,3480.00
2023-07-19T07:55:59.506Z,3552.00
2023-07-19T07:56:59.519Z,3496.00
2023-07-19T07:57:59.508Z,3412.00
2023-07-19T07:58:59.535Z,3424.00
2023-07-19T07:59:59.488Z,3324.00
2023-07-19T08:00:59.621Z,3412.00
2023-07-19T08:01:59.474Z,3452.00
2023-07-19T08:02:59.675Z,3444.00
2023-07-19T08:03:59.567Z,3440.00
2023-07-19T08:04:59.466Z,3496.00
2023-07-19T08:05:59.446Z,3556.00
2023-07-19T08:06:59.425Z,3660.00
2023-07-19T08:07:59.522Z,3816.00
2023-07-19T08:08:59.455Z,3892.00
2023-07-19T08:09:59.449Z,3872.00
2023-07-19T08:10:59.412Z,3956.00
2023-07-19T08:11:59.439Z,4120.00
2023-07-19T08:12:59.413Z,4128.00
2023-07-19T08:13:59.442Z,4144.00
2023-07-19T08:14:59.443Z,3928.00
2023-07-19T08:15:59.413Z,3852.00
2023-07-19T08:17:02.377Z,3920.00
2023-07-19T08:17:59.421Z,3960.00
2023-07-19T08:18:59.401Z,4180.00
2023-07-19T08:19:59.369Z,4456.00
2023-07-19T08:20:59.371Z,4880.00
2023-07-19T08:21:59.369Z,5200.00
2023-07-19T08:23:01.370Z,5384.00
2023-07-19T08:23:59.381Z,5904.00
2023-07-19T08:25:08.354Z,5752.00
2023-07-19T08:26:00.339Z,6016.00
2023-07-19T08:26:59.348Z,6404.00
2023-07-19T08:27:59.349Z,5704.00
2023-07-19T08:28:59.373Z,6864.00
2023-07-19T08:29:59.321Z,6756.00
2023-07-19T08:30:59.355Z,7900.00
2023-07-19T08:31:59.326Z,7720.00
2023-07-19T08:32:59.320Z,7200.00
2023-07-19T08:33:59.362Z,5640.00
2023-07-19T08:34:59.320Z,6308.00
2023-07-19T08:35:59.384Z,6692.00
2023-07-19T08:36:59.313Z,5444.00
2023-07-19T08:37:59.282Z,5780.00
2023-07-19T08:38:59.281Z,5368.00
2023-07-19T08:39:59.286Z,4856.00
2023-07-19T08:40:59.278Z,4356.00
2023-07-19T08:41:59.273Z,5324.00
2023-07-19T08:42:59.250Z,6220.00
2023-07-19T08:43:59.296Z,6788.00
2023-07-19T08:44:59.248Z,7780.00
2023-07-19T08:45:59.321Z,7456.00
2023-07-19T08:46:59.304Z,6788.00
2023-07-19T08:47:59.238Z,7796.00
2023-07-19T08:49:00.259Z,9200.00
2023-07-19T08:49:59.237Z,8508.00
2023-07-19T08:50:59.217Z,9060.00
2023-07-19T08:51:59.199Z,9132.00
2023-07-19T08:52:59.200Z,7884.00
2023-07-19T08:53:59.234Z,7964.00
2023-07-19T08:54:59.201Z,7124.00
2023-07-19T08:55:59.160Z,6276.00
2023-07-19T08:56:59.181Z,7068.00
2023-07-19T08:57:59.183Z,7736.00
2023-07-19T08:58:59.180Z,7936.00
2023-07-19T08:59:59.493Z,6904.00
2023-07-19T09:00:59.186Z,5912.00
2023-07-19T09:01:59.230Z,5724.00
2023-07-19T09:02:59.234Z,5376.00
2023-07-19T09:03:59.163Z,6236.00
2023-07-19T09:04:59.148Z,6312.00
2023-07-19T09:05:59.139Z,6076.00
2023-07-19T09:06:59.158Z,5824.00
2023-07-19T09:07:59.104Z,6300.00
2023-07-19T09:08:59.118Z,6888.00
2023-07-19T09:09:59.140Z,6848.00
2023-07-19T09:10:59.111Z,6092.00
2023-07-19T09:11:59.092Z,6212.00
2023-07-19T09:12:59.114Z,6104.00
2023-07-19T09:13:59.079Z,5972.00
2023-07-19T09:14:59.133Z,6160.00
2023-07-19T09:15:59.104Z,6216.00
2023-07-19T09:16:59.095Z,6084.00
2023-07-19T09:17:59.143Z,6220.00
2023-07-19T09:18:59.118Z,5944.00
2023-07-19T09:19:59.088Z,5992.00
2023-07-19T09:20:59.101Z,6108.00
2023-07-19T09:21:59.072Z,6284.00
2023-07-19T09:22:59.078Z,6352.00
2023-07-19T09:23:59.066Z,6412.00
2023-07-19T09:24:59.058Z,6624.00
2023-07-19T09:25:59.056Z,6752.00
2023-07-19T09:26:59.021Z,6972.00
2023-07-19T09:27:59.033Z,7732.00
2023-07-19T09:28:59.017Z,6968.00
2023-07-19T09:29:59.041Z,6592.00
2023-07-19T09:31:08.272Z,6388.00
2023-07-19T09:32:01.055Z,6980.00
2023-07-19T09:32:59.067Z,6436.00
2023-07-19T09:33:59.003Z,6864.00
2023-07-19T09:34:58.970Z,6784.00
2023-07-19T09:35:59.014Z,6936.00
2023-07-19T09:36:58.992Z,7608.00
2023-07-19T09:37:58.968Z,8312.00
2023-07-19T09:38:59.032Z,10780.00
2023-07-19T09:39:58.941Z,42176.00
2023-07-19T09:40:58.980Z,50016.00
2023-07-19T09:41:58.962Z,26240.00
2023-07-19T09:42:58.931Z,15364.00
2023-07-19T09:43:58.985Z,15696.00
2023-07-19T09:44:58.937Z,17472.00
2023-07-19T09:45:59.035Z,12460.00
2023-07-19T09:46:58.913Z,36160.00
2023-07-19T09:47:58.959Z,14848.00
2023-07-19T09:48:58.899Z,9492.00
2023-07-19T09:49:58.899Z,9984.00
2023-07-19T09:50:58.920Z,10396.00
2023-07-19T09:51:58.885Z,6780.00
2023-07-19T09:52:58.910Z,5484.00
2023-07-19T09:53:58.917Z,4352.00
2023-07-19T09:54:58.897Z,4396.00
2023-07-19T09:55:58.903Z,6100.00
2023-07-19T09:56:58.882Z,11696.00
2023-07-19T09:57:58.897Z,19296.00
2023-07-19T09:58:58.848Z,31456.00
2023-07-19T09:59:58.878Z,7640.00
2023-07-19T10:00:58.905Z,11128.00
2023-07-19T10:01:58.840Z,19680.00
2023-07-19T10:02:58.868Z,5584.00
2023-07-19T10:03:58.835Z,4000.00
2023-07-19T10:04:58.866Z,3552.00
2023-07-19T10:05:58.886Z,4748.00
2023-07-19T10:06:58.841Z,5192.00
2023-07-19T10:07:58.821Z,5708.00
2023-07-19T10:08:58.802Z,7684.00
2023-07-19T10:09:58.805Z,15168.00
2023-07-19T10:10:58.857Z,12880.00
2023-07-19T10:11:58.794Z,5432.00
2023-07-19T10:12:58.805Z,8372.00
2023-07-19T10:14:59.797Z,20576.00
2023-07-19T10:15:58.850Z,13384.00
2023-07-19T10:16:58.908Z,9740.00
2023-07-19T10:17:58.834Z,7760.00
2023-07-19T10:18:58.761Z,6788.00
2023-07-19T10:19:58.783Z,5928.00
2023-07-19T10:20:58.984Z,7080.00
2023-07-19T10:21:59.771Z,8244.00
2023-07-19T10:22:58.837Z,5956.00
2023-07-19T10:23:58.734Z,5172.00
2023-07-19T10:24:58.743Z,5380.00
2023-07-19T10:25:58.740Z,5876.00
2023-07-19T10:26:58.754Z,6744.00
2023-07-19T10:27:58.750Z,5944.00
2023-07-19T10:28:58.745Z,5800.00
2023-07-19T10:29:58.724Z,5432.00
2023-07-19T10:31:02.137Z,5244.00
2023-07-19T10:32:00.102Z,5128.00
2023-07-19T10:32:58.710Z,5968.00
2023-07-19T10:33:58.765Z,7820.00
2023-07-19T10:34:58.682Z,9592.00
2023-07-19T10:35:58.674Z,12408.00
2023-07-19T10:36:58.652Z,11000.00
2023-07-19T10:38:00.417Z,7804.00
2023-07-19T10:38:58.657Z,7040.00
2023-07-19T10:39:58.653Z,7804.00
2023-07-19T10:40:58.671Z,8856.00
2023-07-19T10:41:58.625Z,7872.00
2023-07-19T10:42:58.673Z,10260.00
2023-07-19T10:43:58.729Z,15124.00
2023-07-19T10:44:58.609Z,8220.00
2023-07-19T10:45:58.686Z,6496.00
2023-07-19T10:46:58.620Z,5732.00
2023-07-19T10:47:58.662Z,4724.00
2023-07-19T10:48:58.633Z,6260.00
2023-07-19T10:49:58.587Z,5964.00
2023-07-19T10:50:58.595Z,5308.00
2023-07-19T10:51:58.907Z,5748.00
2023-07-19T10:52:58.587Z,7116.00
2023-07-19T10:53:59.532Z,5828.00
2023-07-19T10:55:10.196Z,5292.00
2023-07-19T10:55:59.572Z,4036.00
2023-07-19T10:56:58.543Z,3632.00
2023-07-19T10:57:58.610Z,3336.00
2023-07-19T10:58:58.551Z,3528.00
2023-07-19T10:59:58.526Z,3784.00
2023-07-19T11:00:58.563Z,3436.00
2023-07-19T11:01:58.564Z,3332.00
2023-07-19T11:02:58.637Z,3152.00
2023-07-19T11:03:58.532Z,2812.00
2023-07-19T11:04:58.537Z,2544.00
2023-07-19T11:05:58.509Z,2436.00
2023-07-19T11:07:00.697Z,2120.00
2023-07-19T11:07:58.538Z,1860.00
2023-07-19T11:08:58.498Z,1780.00
2023-07-19T11:09:58.483Z,1768.00
2023-07-19T11:10:58.475Z,1660.00
2023-07-19T11:11:58.454Z,1592.00
2023-07-19T11:12:58.496Z,1448.00
2023-07-19T11:13:58.464Z,1484.00
2023-07-19T11:14:58.473Z,1648.00
2023-07-19T11:15:58.453Z,1996.00
2023-07-19T11:16:58.473Z,2212.00
2023-07-19T11:17:58.479Z,2160.00
2023-07-19T11:18:58.448Z,1856.00
2023-07-19T11:19:58.453Z,1584.00
2023-07-19T11:20:58.437Z,1464.00
2023-07-19T11:21:58.416Z,1552.00
2023-07-19T11:22:58.446Z,1712.00
2023-07-19T11:23:58.418Z,1784.00
2023-07-19T11:24:58.388Z,1820.00
2023-07-19T11:25:58.414Z,1892.00
2023-07-19T11:26:58.405Z,1624.00
2023-07-19T11:27:58.369Z,1464.00
2023-07-19T11:28:58.415Z,1652.00
2023-07-19T11:29:58.369Z,2124.00
2023-07-19T11:30:58.452Z,2692.00
2023-07-19T11:31:58.381Z,2824.00
2023-07-19T11:32:58.385Z,2664.00
2023-07-19T11:33:58.366Z,2528.00
2023-07-19T11:34:58.363Z,2512.00
2023-07-19T11:35:58.342Z,2712.00
2023-07-19T11:36:58.357Z,2312.00
2023-07-19T11:37:58.356Z,2112.00
2023-07-19T11:38:58.353Z,2028.00
2023-07-19T11:39:58.342Z,2020.00
2023-07-19T11:40:58.330Z,2048.00
2023-07-19T11:41:58.290Z,2104.00
2023-07-19T11:42:58.291Z,2104.00
2023-07-19T11:43:58.293Z,2048.00
2023-07-19T11:44:58.308Z,2056.00
2023-07-19T11:45:58.259Z,2040.00
2023-07-19T11:46:58.299Z,1936.00
2023-07-19T11:47:58.353Z,1836.00
2023-07-19T11:48:58.340Z,2028.00
2023-07-19T11:49:59.261Z,2520.00
2023-07-19T11:50:58.260Z,3008.00
2023-07-19T11:51:58.259Z,3120.00
2023-07-19T11:52:58.259Z,3228.00
2023-07-19T11:53:58.253Z,3488.00
2023-07-19T11:54:58.248Z,3684.00
2023-07-19T11:56:59.205Z,2892.00
2023-07-19T11:57:58.240Z,2828.00
2023-07-19T11:58:58.223Z,3272.00
2023-07-19T11:59:58.232Z,6504.00
2023-07-19T12:00:58.218Z,5412.00
2023-07-19T12:01:58.181Z,20480.00
2023-07-19T12:02:58.243Z,4844.00
2023-07-19T12:03:58.234Z,3820.00
2023-07-19T12:04:58.215Z,3400.00
2023-07-19T12:05:58.178Z,3980.00
2023-07-19T12:06:58.166Z,4144.00
2023-07-19T12:07:58.181Z,4768.00
2023-07-19T12:08:58.143Z,4860.00
2023-07-19T12:09:58.208Z,5788.00
2023-07-19T12:10:58.155Z,4784.00
2023-07-19T12:11:58.196Z,4064.00
2023-07-19T12:12:58.189Z,3388.00
2023-07-19T12:13:58.479Z,2956.00
2023-07-19T12:14:58.154Z,2888.00
2023-07-19T12:15:58.120Z,2912.00
2023-07-19T12:16:58.244Z,4192.00
2023-07-19T12:17:58.223Z,4720.00
2023-07-19T12:18:58.084Z,4472.00
2023-07-19T12:19:58.113Z,4076.00
2023-07-19T12:20:58.108Z,4044.00
2023-07-19T12:21:58.077Z,4932.00
2023-07-19T12:22:58.140Z,6616.00
2023-07-19T12:23:59.611Z,7200.00
2023-07-19T12:24:59.094Z,6136.00
2023-07-19T12:25:58.098Z,6292.00
2023-07-19T12:26:58.052Z,5792.00
2023-07-19T12:27:58.055Z,5484.00
2023-07-19T12:28:58.095Z,5176.00